sensor_id;sensor_type;location;lat;lon;timestamp;temperature;humidity
50738;DHT22;36703;48.154;17.126;2022-09-03T00:15:11;22.00;63.30
50738;DHT22;36703;48.154;17.126;2022-09-03T00:19:17;22.00;62.80
50738;DHT22;36703;48.154;17.126;2022-09-03T00:23:25;22.20;61.20
50738;DHT22;36703;48.154;17.126;2022-09-03T00:27:28;22.00;59.30
50738;DHT22;36703;48.154;17.126;2022-09-03T00:31:42;21.90;59.00
50738;DHT22;36703;48.154;17.126;2022-09-03T00:36:14;21.90;60.00
50738;DHT22;36703;48.154;17.126;2022-09-03T00:49:06;21.80;43.50
50738;DHT22;36703;48.154;17.126;2022-09-03T00:53:48;21.70;43.60
50738;DHT22;36703;48.154;17.126;2022-09-03T01:02:36;21.80;43.90
50738;DHT22;36703;48.154;17.126;2022-09-03T01:20:54;21.70;56.30
50738;DHT22;36703;48.154;17.126;2022-09-03T01:34:36;21.70;58.10
50738;DHT22;36703;48.154;17.126;2022-09-03T01:38:55;21.70;57.90
50738;DHT22;36703;48.154;17.126;2022-09-03T01:51:33;21.40;43.90
50738;DHT22;36703;48.154;17.126;2022-09-03T02:00:19;21.30;44.40
50738;DHT22;36703;48.154;17.126;2022-09-03T02:04:24;21.20;44.30
50738;DHT22;36703;48.154;17.126;2022-09-03T02:08:26;21.20;44.50
50738;DHT22;36703;48.154;17.126;2022-09-03T02:12:30;21.10;44.50
50738;DHT22;36703;48.154;17.126;2022-09-03T02:16:34;21.10;44.70
50738;DHT22;36703;48.154;17.126;2022-09-03T02:20:36;21.10;44.80
50738;DHT22;36703;48.154;17.126;2022-09-03T02:24:38;21.00;45.00
50738;DHT22;36703;48.154;17.126;2022-09-03T02:28:40;20.90;45.00
50738;DHT22;36703;48.154;17.126;2022-09-03T02:32:41;20.90;45.00
50738;DHT22;36703;48.154;17.126;2022-09-03T02:36:45;20.90;45.00
50738;DHT22;36703;48.154;17.126;2022-09-03T02:40:47;21.00;45.00
50738;DHT22;36703;48.154;17.126;2022-09-03T02:44:54;20.90;45.00
50738;DHT22;36703;48.154;17.126;2022-09-03T02:48:58;20.90;45.00
50738;DHT22;36703;48.154;17.126;2022-09-03T02:52:59;20.90;44.90
50738;DHT22;36703;48.154;17.126;2022-09-03T02:57:01;20.80;44.90
50738;DHT22;36703;48.154;17.126;2022-09-03T03:01:04;20.90;45.00
50738;DHT22;36703;48.154;17.126;2022-09-03T03:05:05;20.80;45.00
50738;DHT22;36703;48.154;17.126;2022-09-03T03:09:10;20.70;45.00
50738;DHT22;36703;48.154;17.126;2022-09-03T03:13:11;20.70;45.10
50738;DHT22;36703;48.154;17.126;2022-09-03T03:17:13;20.70;45.10
50738;DHT22;36703;48.154;17.126;2022-09-03T03:21:16;20.70;45.10
50738;DHT22;36703;48.154;17.126;2022-09-03T03:25:18;20.70;45.20
50738;DHT22;36703;48.154;17.126;2022-09-03T03:29:19;20.60;45.10
50738;DHT22;36703;48.154;17.126;2022-09-03T03:33:21;20.60;45.20
50738;DHT22;36703;48.154;17.126;2022-09-03T03:37:23;20.60;45.20
50738;DHT22;36703;48.154;17.126;2022-09-03T03:41:26;20.70;45.10
50738;DHT22;36703;48.154;17.126;2022-09-03T03:45:31;20.70;45.10
50738;DHT22;36703;48.154;17.126;2022-09-03T03:49:32;20.70;45.00
50738;DHT22;36703;48.154;17.126;2022-09-03T03:53:34;20.70;45.00
50738;DHT22;36703;48.154;17.126;2022-09-03T03:57:38;20.60;45.00
50738;DHT22;36703;48.154;17.126;2022-09-03T04:01:39;20.40;45.10
50738;DHT22;36703;48.154;17.126;2022-09-03T04:05:40;20.40;45.10
50738;DHT22;36703;48.154;17.126;2022-09-03T04:09:41;20.50;45.10
50738;DHT22;36703;48.154;17.126;2022-09-03T04:13:44;20.50;45.20
50738;DHT22;36703;48.154;17.126;2022-09-03T04:17:46;20.40;45.30
50738;DHT22;36703;48.154;17.126;2022-09-03T04:21:48;20.30;45.70
50738;DHT22;36703;48.154;17.126;2022-09-03T04:25:52;20.20;45.70
50738;DHT22;36703;48.154;17.126;2022-09-03T04:29:54;20.10;46.00
50738;DHT22;36703;48.154;17.126;2022-09-03T04:33:55;20.10;46.30
50738;DHT22;36703;48.154;17.126;2022-09-03T04:37:57;20.10;46.10
50738;DHT22;36703;48.154;17.126;2022-09-03T04:41:58;20.10;46.20
50738;DHT22;36703;48.154;17.126;2022-09-03T04:46:02;20.00;46.30
50738;DHT22;36703;48.154;17.126;2022-09-03T04:50:05;19.90;46.50
50738;DHT22;36703;48.154;17.126;2022-09-03T04:54:07;19.90;46.60
50738;DHT22;36703;48.154;17.126;2022-09-03T04:58:09;19.80;46.60
50738;DHT22;36703;48.154;17.126;2022-09-03T05:02:11;19.80;46.80
50738;DHT22;36703;48.154;17.126;2022-09-03T05:06:13;19.70;46.90
50738;DHT22;36703;48.154;17.126;2022-09-03T05:10:17;19.70;47.00
50738;DHT22;36703;48.154;17.126;2022-09-03T05:14:21;19.80;47.00
50738;DHT22;36703;48.154;17.126;2022-09-03T05:18:23;19.80;47.00
50738;DHT22;36703;48.154;17.126;2022-09-03T05:22:25;19.80;46.90
50738;DHT22;36703;48.154;17.126;2022-09-03T05:26:29;19.80;47.00
50738;DHT22;36703;48.154;17.126;2022-09-03T05:30:32;19.80;47.10
50738;DHT22;36703;48.154;17.126;2022-09-03T05:34:33;19.80;47.20
50738;DHT22;36703;48.154;17.126;2022-09-03T05:38:35;19.70;47.20
50738;DHT22;36703;48.154;17.126;2022-09-03T05:42:37;19.70;47.30
50738;DHT22;36703;48.154;17.126;2022-09-03T05:46:38;19.80;47.40
50738;DHT22;36703;48.154;17.126;2022-09-03T05:50:40;19.80;47.40
50738;DHT22;36703;48.154;17.126;2022-09-03T05:54:41;19.90;47.40
50738;DHT22;36703;48.154;17.126;2022-09-03T05:58:45;20.00;47.50
50738;DHT22;36703;48.154;17.126;2022-09-03T06:02:51;20.00;47.50
50738;DHT22;36703;48.154;17.126;2022-09-03T06:06:55;20.10;47.60
50738;DHT22;36703;48.154;17.126;2022-09-03T06:11:00;20.30;47.60
50738;DHT22;36703;48.154;17.126;2022-09-03T06:15:04;20.50;47.50
50738;DHT22;36703;48.154;17.126;2022-09-03T06:19:06;20.70;47.40
50738;DHT22;36703;48.154;17.126;2022-09-03T06:23:10;20.80;47.20
50738;DHT22;36703;48.154;17.126;2022-09-03T06:27:11;20.90;47.30
50738;DHT22;36703;48.154;17.126;2022-09-03T06:31:15;21.00;48.00
50738;DHT22;36703;48.154;17.126;2022-09-03T06:35:17;21.10;47.10
50738;DHT22;36703;48.154;17.126;2022-09-03T06:39:22;21.20;47.10
50738;DHT22;36703;48.154;17.126;2022-09-03T06:43:24;21.30;47.10
50738;DHT22;36703;48.154;17.126;2022-09-03T06:47:28;21.40;47.10
50738;DHT22;36703;48.154;17.126;2022-09-03T06:51:31;21.40;47.30
50738;DHT22;36703;48.154;17.126;2022-09-03T06:55:34;21.40;47.40
50738;DHT22;36703;48.154;17.126;2022-09-03T06:59:39;21.50;47.70
50738;DHT22;36703;48.154;17.126;2022-09-03T07:03:42;21.60;47.60
50738;DHT22;36703;48.154;17.126;2022-09-03T07:07:44;21.70;47.50
50738;DHT22;36703;48.154;17.126;2022-09-03T07:11:46;21.80;47.50
50738;DHT22;36703;48.154;17.126;2022-09-03T07:15:47;22.00;48.10
50738;DHT22;36703;48.154;17.126;2022-09-03T07:19:48;22.10;47.60
50738;DHT22;36703;48.154;17.126;2022-09-03T07:23:51;22.10;47.60
50738;DHT22;36703;48.154;17.126;2022-09-03T07:27:53;22.20;47.70
50738;DHT22;36703;48.154;17.126;2022-09-03T07:31:54;22.30;47.70
50738;DHT22;36703;48.154;17.126;2022-09-03T07:36:05;22.30;47.70
50738;DHT22;36703;48.154;17.126;2022-09-03T07:40:09;22.40;47.80
50738;DHT22;36703;48.154;17.126;2022-09-03T07:44:15;22.40;47.80
50738;DHT22;36703;48.154;17.126;2022-09-03T07:48:18;22.50;47.70
50738;DHT22;36703;48.154;17.126;2022-09-03T07:52:20;22.70;47.60
50738;DHT22;36703;48.154;17.126;2022-09-03T07:56:23;22.80;47.40
50738;DHT22;36703;48.154;17.126;2022-09-03T08:00:26;23.00;47.30
50738;DHT22;36703;48.154;17.126;2022-09-03T08:04:27;23.10;47.10
50738;DHT22;36703;48.154;17.126;2022-09-03T08:08:30;23.20;46.90
50738;DHT22;36703;48.154;17.126;2022-09-03T08:12:32;23.30;46.70
50738;DHT22;36703;48.154;17.126;2022-09-03T08:16:39;23.40;46.60
50738;DHT22;36703;48.154;17.126;2022-09-03T08:20:42;23.50;46.50
50738;DHT22;36703;48.154;17.126;2022-09-03T08:24:43;23.60;46.30
50738;DHT22;36703;48.154;17.126;2022-09-03T08:28:45;23.70;46.10
50738;DHT22;36703;48.154;17.126;2022-09-03T08:32:46;23.70;45.90
50738;DHT22;36703;48.154;17.126;2022-09-03T08:36:47;23.80;45.80
50738;DHT22;36703;48.154;17.126;2022-09-03T08:40:50;23.90;45.70
50738;DHT22;36703;48.154;17.126;2022-09-03T08:44:59;24.10;45.40
50738;DHT22;36703;48.154;17.126;2022-09-03T08:49:03;24.20;45.10
50738;DHT22;36703;48.154;17.126;2022-09-03T08:53:22;24.30;44.80
50738;DHT22;36703;48.154;17.126;2022-09-03T08:57:31;24.40;44.60
50738;DHT22;36703;48.154;17.126;2022-09-03T09:01:56;24.50;44.40
50738;DHT22;36703;48.154;17.126;2022-09-03T09:06:25;24.70;44.10
50738;DHT22;36703;48.154;17.126;2022-09-03T09:10:47;24.90;43.90
50738;DHT22;36703;48.154;17.126;2022-09-03T09:15:18;25.10;43.60
50738;DHT22;36703;48.154;17.126;2022-09-03T09:23:59;25.70;42.70
50738;DHT22;36703;48.154;17.126;2022-09-03T09:28:22;26.10;42.30
50738;DHT22;36703;48.154;17.126;2022-09-03T09:32:25;26.40;41.70
50738;DHT22;36703;48.154;17.126;2022-09-03T09:36:26;26.80;41.40
50738;DHT22;36703;48.154;17.126;2022-09-03T09:40:30;27.40;40.90
50738;DHT22;36703;48.154;17.126;2022-09-03T09:44:34;28.00;40.00
50738;DHT22;36703;48.154;17.126;2022-09-03T09:48:40;28.80;39.20
50738;DHT22;36703;48.154;17.126;2022-09-03T09:53:02;29.50;38.50
50738;DHT22;36703;48.154;17.126;2022-09-03T09:57:17;30.30;37.70
50738;DHT22;36703;48.154;17.126;2022-09-03T10:01:23;31.00;36.40
50738;DHT22;36703;48.154;17.126;2022-09-03T10:05:31;31.20;35.00
50738;DHT22;36703;48.154;17.126;2022-09-03T10:09:38;31.30;34.80
50738;DHT22;36703;48.154;17.126;2022-09-03T10:13:42;31.80;34.30
50738;DHT22;36703;48.154;17.126;2022-09-03T10:22:11;31.90;33.10
50738;DHT22;36703;48.154;17.126;2022-09-03T10:26:20;32.40;33.00
50738;DHT22;36703;48.154;17.126;2022-09-03T10:30:39;32.40;32.70
50738;DHT22;36703;48.154;17.126;2022-09-03T10:35:29;32.20;32.50
50738;DHT22;36703;48.154;17.126;2022-09-03T10:44:28;31.80;33.20
50738;DHT22;36703;48.154;17.126;2022-09-03T10:49:09;32.20;32.80
50738;DHT22;36703;48.154;17.126;2022-09-03T10:53:27;32.50;32.40
50738;DHT22;36703;48.154;17.126;2022-09-03T10:57:45;32.70;32.30
50738;DHT22;36703;48.154;17.126;2022-09-03T11:01:57;32.80;32.00
50738;DHT22;36703;48.154;17.126;2022-09-03T11:06:32;33.00;31.90
50738;DHT22;36703;48.154;17.126;2022-09-03T11:10:47;33.10;31.50
50738;DHT22;36703;48.154;17.126;2022-09-03T11:19:16;32.80;31.40
50738;DHT22;36703;48.154;17.126;2022-09-03T11:23:21;32.80;31.40
50738;DHT22;36703;48.154;17.126;2022-09-03T11:28:49;32.80;31.40
50738;DHT22;36703;48.154;17.126;2022-09-03T11:32:51;32.70;31.30
50738;DHT22;36703;48.154;17.126;2022-09-03T11:41:34;32.40;31.40
50738;DHT22;36703;48.154;17.126;2022-09-03T11:45:37;32.20;31.40
50738;DHT22;36703;48.154;17.126;2022-09-03T11:49:44;31.90;31.70
50738;DHT22;36703;48.154;17.126;2022-09-03T11:58:36;31.50;31.90
50738;DHT22;36703;48.154;17.126;2022-09-03T12:02:44;31.30;32.30
50738;DHT22;36703;48.154;17.126;2022-09-03T12:16:48;31.30;32.50
50738;DHT22;36703;48.154;17.126;2022-09-03T12:21:04;31.30;32.60
50738;DHT22;36703;48.154;17.126;2022-09-03T12:25:13;31.20;32.50
50738;DHT22;36703;48.154;17.126;2022-09-03T12:29:24;31.00;32.50
50738;DHT22;36703;48.154;17.126;2022-09-03T12:33:26;30.70;32.70
50738;DHT22;36703;48.154;17.126;2022-09-03T12:37:32;30.70;32.90
50738;DHT22;36703;48.154;17.126;2022-09-03T12:41:36;30.60;33.00
50738;DHT22;36703;48.154;17.126;2022-09-03T12:45:46;30.30;33.00
50738;DHT22;36703;48.154;17.126;2022-09-03T12:49:51;30.30;33.40
50738;DHT22;36703;48.154;17.126;2022-09-03T12:53:53;30.30;33.40
50738;DHT22;36703;48.154;17.126;2022-09-03T12:58:02;30.20;33.20
50738;DHT22;36703;48.154;17.126;2022-09-03T13:02:34;30.00;33.30
50738;DHT22;36703;48.154;17.126;2022-09-03T13:07:22;30.00;33.40
50738;DHT22;36703;48.154;17.126;2022-09-03T13:11:25;30.00;33.50
50738;DHT22;36703;48.154;17.126;2022-09-03T13:15:27;29.90;33.50
50738;DHT22;36703;48.154;17.126;2022-09-03T13:33:19;29.70;33.90
50738;DHT22;36703;48.154;17.126;2022-09-03T13:37:26;29.60;34.00
50738;DHT22;36703;48.154;17.126;2022-09-03T13:41:47;29.60;34.10
50738;DHT22;36703;48.154;17.126;2022-09-03T13:46:01;29.40;34.30
50738;DHT22;36703;48.154;17.126;2022-09-03T13:50:17;29.20;34.50
50738;DHT22;36703;48.154;17.126;2022-09-03T13:54:26;29.00;34.30
50738;DHT22;36703;48.154;17.126;2022-09-03T13:58:55;29.00;34.70
50738;DHT22;36703;48.154;17.126;2022-09-03T14:03:22;28.90;34.80
50738;DHT22;36703;48.154;17.126;2022-09-03T14:16:40;29.10;34.70
50738;DHT22;36703;48.154;17.126;2022-09-03T14:21:00;29.00;34.70
50738;DHT22;36703;48.154;17.126;2022-09-03T14:25:13;29.00;34.70
50738;DHT22;36703;48.154;17.126;2022-09-03T14:29:17;29.00;34.70
50738;DHT22;36703;48.154;17.126;2022-09-03T14:34:07;28.90;34.70
50738;DHT22;36703;48.154;17.126;2022-09-03T14:38:29;28.90;34.90
50738;DHT22;36703;48.154;17.126;2022-09-03T14:43:01;28.90;35.00
50738;DHT22;36703;48.154;17.126;2022-09-03T14:47:14;28.90;35.10
50738;DHT22;36703;48.154;17.126;2022-09-03T14:56:02;28.80;35.20
50738;DHT22;36703;48.154;17.126;2022-09-03T15:00:15;28.70;35.30
50738;DHT22;36703;48.154;17.126;2022-09-03T15:09:15;28.60;35.40
50738;DHT22;36703;48.154;17.126;2022-09-03T15:13:44;28.60;35.40
50738;DHT22;36703;48.154;17.126;2022-09-03T15:28:16;28.50;35.60
50738;DHT22;36703;48.154;17.126;2022-09-03T15:40:31;28.30;35.90
50738;DHT22;36703;48.154;17.126;2022-09-03T15:44:50;28.30;36.00
50738;DHT22;36703;48.154;17.126;2022-09-03T15:54:18;28.30;36.10
50738;DHT22;36703;48.154;17.126;2022-09-03T16:03:33;28.20;36.30
50738;DHT22;36703;48.154;17.126;2022-09-03T16:08:07;28.20;36.40
50738;DHT22;36703;48.154;17.126;2022-09-03T16:17:01;28.10;36.50
50738;DHT22;36703;48.154;17.126;2022-09-03T16:26:02;28.00;36.80
50738;DHT22;36703;48.154;17.126;2022-09-03T16:30:21;27.90;37.00
50738;DHT22;36703;48.154;17.126;2022-09-03T16:35:24;27.90;37.20
50738;DHT22;36703;48.154;17.126;2022-09-03T17:01:16;27.70;38.00
50738;DHT22;36703;48.154;17.126;2022-09-03T17:05:57;27.70;38.20
50738;DHT22;36703;48.154;17.126;2022-09-03T17:27:51;27.40;39.10
50738;DHT22;36703;48.154;17.126;2022-09-03T17:32:25;27.40;39.30
50738;DHT22;36703;48.154;17.126;2022-09-03T17:36:55;27.30;39.40
50738;DHT22;36703;48.154;17.126;2022-09-03T17:45:15;27.30;39.60
50738;DHT22;36703;48.154;17.126;2022-09-03T17:49:24;27.30;39.70
50738;DHT22;36703;48.154;17.126;2022-09-03T17:53:52;27.30;39.70
50738;DHT22;36703;48.154;17.126;2022-09-03T17:58:39;27.20;39.80
50738;DHT22;36703;48.154;17.126;2022-09-03T18:02:49;27.20;39.90
50738;DHT22;36703;48.154;17.126;2022-09-03T18:06:58;27.20;40.00
50738;DHT22;36703;48.154;17.126;2022-09-03T18:20:10;27.00;40.20
50738;DHT22;36703;48.154;17.126;2022-09-03T18:24:46;26.90;40.20
50738;DHT22;36703;48.154;17.126;2022-09-03T18:29:31;26.90;40.30
50738;DHT22;36703;48.154;17.126;2022-09-03T18:33:55;26.80;40.30
50738;DHT22;36703;48.154;17.126;2022-09-03T18:38:21;26.80;40.40
50738;DHT22;36703;48.154;17.126;2022-09-03T18:42:49;26.70;40.40
50738;DHT22;36703;48.154;17.126;2022-09-03T18:52:26;26.70;40.60
50738;DHT22;36703;48.154;17.126;2022-09-03T18:56:50;26.70;40.70
50738;DHT22;36703;48.154;17.126;2022-09-03T19:15:27;26.60;40.90
50738;DHT22;36703;48.154;17.126;2022-09-03T19:24:29;26.50;41.10
50738;DHT22;36703;48.154;17.126;2022-09-03T19:28:55;26.50;41.70
50738;DHT22;36703;48.154;17.126;2022-09-03T19:42:38;26.40;41.30
50738;DHT22;36703;48.154;17.126;2022-09-03T19:47:02;26.40;41.30
50738;DHT22;36703;48.154;17.126;2022-09-03T19:51:33;26.40;41.40
50738;DHT22;36703;48.154;17.126;2022-09-03T19:55:59;26.30;41.60
50738;DHT22;36703;48.154;17.126;2022-09-03T20:00:22;26.30;41.70
50738;DHT22;36703;48.154;17.126;2022-09-03T20:04:59;26.30;41.70
50738;DHT22;36703;48.154;17.126;2022-09-03T20:09:22;26.20;41.80
50738;DHT22;36703;48.154;17.126;2022-09-03T20:13:47;26.00;41.90
50738;DHT22;36703;48.154;17.126;2022-09-03T20:18:16;26.00;42.10
50738;DHT22;36703;48.154;17.126;2022-09-03T20:22:42;25.90;42.00
50738;DHT22;36703;48.154;17.126;2022-09-03T20:35:48;26.00;42.10
50738;DHT22;36703;48.154;17.126;2022-09-03T20:40:28;26.00;42.10
50738;DHT22;36703;48.154;17.126;2022-09-03T21:02:22;26.20;42.20
50738;DHT22;36703;48.154;17.126;2022-09-03T21:15:57;26.10;42.40
50738;DHT22;36703;48.154;17.126;2022-09-03T21:24:22;26.00;42.60
50738;DHT22;36703;48.154;17.126;2022-09-03T21:28:37;26.00;42.70
50738;DHT22;36703;48.154;17.126;2022-09-03T21:32:59;25.90;42.70
50738;DHT22;36703;48.154;17.126;2022-09-03T21:37:05;25.90;42.80
50738;DHT22;36703;48.154;17.126;2022-09-03T21:45:33;25.70;43.00
50738;DHT22;36703;48.154;17.126;2022-09-03T21:54:17;25.60;43.20
50738;DHT22;36703;48.154;17.126;2022-09-03T22:03:05;25.50;43.50
50738;DHT22;36703;48.154;17.126;2022-09-03T22:12:09;25.50;43.60
50738;DHT22;36703;48.154;17.126;2022-09-03T22:16:34;25.50;43.50
50738;DHT22;36703;48.154;17.126;2022-09-03T22:20:38;25.50;43.60
50738;DHT22;36703;48.154;17.126;2022-09-03T22:25:08;25.50;43.50
50738;DHT22;36703;48.154;17.126;2022-09-03T22:29:32;25.40;43.50
50738;DHT22;36703;48.154;17.126;2022-09-03T22:38:24;25.40;43.70
50738;DHT22;36703;48.154;17.126;2022-09-03T22:42:48;25.40;43.70
50738;DHT22;36703;48.154;17.126;2022-09-03T22:47:12;25.40;43.70
50738;DHT22;36703;48.154;17.126;2022-09-03T22:56:39;25.10;43.80
50738;DHT22;36703;48.154;17.126;2022-09-03T23:00:58;25.10;44.10
50738;DHT22;36703;48.154;17.126;2022-09-03T23:09:40;25.00;44.20
50738;DHT22;36703;48.154;17.126;2022-09-03T23:13:46;25.00;44.20
50738;DHT22;36703;48.154;17.126;2022-09-03T23:17:55;24.90;44.20
50738;DHT22;36703;48.154;17.126;2022-09-03T23:22:18;24.90;44.30
50738;DHT22;36703;48.154;17.126;2022-09-03T23:26:47;24.80;44.30
50738;DHT22;36703;48.154;17.126;2022-09-03T23:30:52;24.70;44.50
50738;DHT22;36703;48.154;17.126;2022-09-03T23:34:58;24.70;44.60
50738;DHT22;36703;48.154;17.126;2022-09-03T23:39:24;24.60;44.70
50738;DHT22;36703;48.154;17.126;2022-09-03T23:57:22;24.50;44.80
